Time;durP1;ratioP1;P1;durP2;ratioP2;P2;SDS_P1;SDS_P2;PMS_P1;PMS_P2;Temp;Humidity;BMP_temperature;BMP_pressure;BME280_temperature;BME280_humidity;BME280_pressure;Samples;Min_cycle;Max_cycle;Signal;HPM_P1;HPM_P2
2023/01/15 00:30:19;;;;;;;195.35;109.20;;;;;;;;;;4783658;30;20051;-82
2023/01/15 00:33:04;;;;;;;189.75;104.78;;;;;;;;;;4822651;29;20050;-80
2023/01/15 00:35:48;;;;;;;181.88;99.50;;;;;;;;;;4870264;29;20060;-81
2023/01/15 00:38:33;;;;;;;177.23;97.22;;;;;;;;;;4881620;29;20049;-83
2023/01/15 00:45:28;;;;;;;147.35;79.22;;;;;;;;;;4892264;29;20052;-80
2023/01/15 00:48:13;;;;;;;141.15;77.93;;;;;;;;;;4901500;29;20044;-82
2023/01/15 00:50:58;;;;;;;153.93;88.20;;;;;;;;;;4906398;29;20052;-81
2023/01/15 00:53:43;;;;;;;150.77;83.50;;;;;;;;;;4901967;29;20056;-80
2023/01/15 00:56:29;;;;;;;130.80;75.53;;;;;;;;;;4900999;29;20052;-81
2023/01/15 00:59:14;;;;;;;130.63;71.25;;;;;;;;;;4901273;29;20040;-80
2023/01/15 01:02:01;;;;;;;134.13;73.82;;;;;;;;;;4904125;29;20052;-81
2023/01/15 01:04:46;;;;;;;129.52;74.55;;;;;;;;;;4904418;29;20044;-82
2023/01/15 01:07:34;;;;;;;137.35;71.63;;;;;;;;;;4898978;29;20044;-83
2023/01/15 01:11:32;;;;;;;124.00;67.68;;;;;;;;;;4890876;29;20045;-81
2023/01/15 01:23:28;;;;;;;117.57;63.38;;;;;;;;;;4905435;29;20040;-80
2023/01/15 01:27:15;;;;;;;132.20;70.80;;;;;;;;;;4900452;29;20045;-82
2023/01/15 01:35:46;;;;;;;155.55;81.57;;;;;;;;;;4846856;29;20049;-82
2023/01/15 02:05:31;;;;;;;158.13;75.10;;;;;;;;;;4811857;29;20094;-81
2023/01/15 02:08:51;;;;;;;133.82;73.50;;;;;;;;;;4819965;29;20046;-81
2023/01/15 02:11:36;;;;;;;194.02;100.95;;;;;;;;;;4905291;29;20049;-81
2023/01/15 02:14:34;;;;;;;173.63;95.45;;;;;;;;;;4904818;29;20048;-82
2023/01/15 02:17:46;;;;;;;226.65;123.40;;;;;;;;;;4900053;29;20053;-80
2023/01/15 02:20:41;;;;;;;147.52;78.50;;;;;;;;;;4894043;29;20483;-85
2023/01/15 02:24:02;;;;;;;139.45;72.20;;;;;;;;;;4905450;29;20041;-84
2023/01/15 02:27:05;;;;;;;136.48;70.63;;;;;;;;;;4905660;29;20044;-86
2023/01/15 02:30:02;;;;;;;126.38;67.43;;;;;;;;;;4905346;29;20040;-86
2023/01/15 02:32:59;;;;;;;123.10;66.45;;;;;;;;;;4892286;29;20041;-84
2023/01/15 02:35:57;;;;;;;129.48;65.68;;;;;;;;;;4891885;29;20044;-86
2023/01/15 02:38:48;;;;;;;120.15;61.10;;;;;;;;;;4905055;29;20487;-85
2023/01/15 02:41:40;;;;;;;115.30;57.08;;;;;;;;;;4891589;29;20040;-84
2023/01/15 02:44:29;;;;;;;105.25;53.78;;;;;;;;;;4891514;29;20037;-84
2023/01/15 02:47:19;;;;;;;104.88;53.25;;;;;;;;;;4899777;29;20048;-84
2023/01/15 02:50:09;;;;;;;96.80;50.20;;;;;;;;;;4904510;29;20044;-84
2023/01/15 02:53:04;;;;;;;102.80;50.80;;;;;;;;;;4905187;29;20074;-85
2023/01/15 02:55:55;;;;;;;;;;;;;;;;;;4891768;29;20491;-83
2023/01/15 02:58:48;;;;;;;101.50;50.33;;;;;;;;;;4904385;29;19919;-83
2023/01/15 03:01:58;;;;;;;112.40;56.22;;;;;;;;;;4891273;29;20403;-85
2023/01/15 03:04:47;;;;;;;115.68;55.50;;;;;;;;;;4904125;29;20049;-83
2023/01/15 03:07:42;;;;;;;114.15;56.90;;;;;;;;;;4899008;29;20045;-84
2023/01/15 03:11:04;;;;;;;119.18;57.30;;;;;;;;;;4878342;29;20045;-85
2023/01/15 03:14:01;;;;;;;107.93;52.63;;;;;;;;;;4883451;29;20049;-82
2023/01/15 03:16:52;;;;;;;110.28;54.92;;;;;;;;;;4904282;29;20498;-85
2023/01/15 03:19:48;;;;;;;104.93;53.63;;;;;;;;;;4898951;29;20045;-85
2023/01/15 03:22:42;;;;;;;111.78;51.92;;;;;;;;;;4904061;29;20045;-85
2023/01/15 03:25:34;;;;;;;110.40;51.13;;;;;;;;;;4891138;29;20395;-85
2023/01/15 03:28:25;;;;;;;99.25;49.17;;;;;;;;;;4891065;29;20506;-84
2023/01/15 03:31:12;;;;;;;102.18;52.47;;;;;;;;;;4904198;29;20418;-85
2023/01/15 03:33:58;;;;;;;108.00;53.88;;;;;;;;;;4890697;29;20044;-85
2023/01/15 03:36:43;;;;;;;115.13;55.63;;;;;;;;;;4878776;29;20403;-84
2023/01/15 03:39:29;;;;;;;108.90;53.10;;;;;;;;;;4918651;29;20044;-83
2023/01/15 03:42:42;;;;;;;108.93;53.20;;;;;;;;;;4905690;29;20052;-83
2023/01/15 03:45:34;;;;;;;98.20;49.30;;;;;;;;;;4909119;29;20048;-84
2023/01/15 03:48:27;;;;;;;107.13;52.38;;;;;;;;;;4902778;29;20048;-84
2023/01/15 03:51:22;;;;;;;115.57;52.63;;;;;;;;;;4906215;29;20041;-84
2023/01/15 03:54:20;;;;;;;100.80;52.10;;;;;;;;;;4917917;29;20487;-83
2023/01/15 03:57:28;;;;;;;101.68;50.60;;;;;;;;;;4907669;29;20044;-83
2023/01/15 04:00:23;;;;;;;99.38;48.40;;;;;;;;;;4889571;29;20053;-83
2023/01/15 04:03:13;;;;;;;104.18;50.88;;;;;;;;;;4904740;29;20036;-83
2023/01/15 04:06:01;;;;;;;93.75;46.50;;;;;;;;;;4904505;29;20052;-85
2023/01/15 04:08:48;;;;;;;95.90;48.90;;;;;;;;;;4878205;29;20049;-84
2023/01/15 04:11:34;;;;;;;86.07;46.92;;;;;;;;;;4890677;29;20056;-84
2023/01/15 04:14:23;;;;;;;92.15;46.08;;;;;;;;;;4890884;29;20052;-85
2023/01/15 04:17:11;;;;;;;91.72;46.10;;;;;;;;;;4894087;29;20048;-85
2023/01/15 04:19:57;;;;;;;94.40;46.83;;;;;;;;;;4895936;29;20395;-84
2023/01/15 04:22:43;;;;;;;103.60;48.28;;;;;;;;;;4907517;29;20052;-85
2023/01/15 04:25:28;;;;;;;114.78;50.40;;;;;;;;;;4881998;29;20040;-83
2023/01/15 04:28:14;;;;;;;112.50;52.90;;;;;;;;;;4907280;29;20056;-83
2023/01/15 04:30:59;;;;;;;109.00;50.50;;;;;;;;;;4914719;29;20060;-82
2023/01/15 04:33:45;;;;;;;116.68;52.30;;;;;;;;;;4908107;29;20044;-83
2023/01/15 04:36:34;;;;;;;154.27;48.53;;;;;;;;;;4900868;29;20040;-83
2023/01/15 04:39:20;;;;;;;186.65;47.97;;;;;;;;;;4908307;29;20044;-83
2023/01/15 04:45:09;;;;;;;323.15;42.65;;;;;;;;;;4901712;29;20394;-84
2023/01/15 04:47:54;;;;;;;341.10;44.78;;;;;;;;;;4906814;29;20483;-83
2023/01/15 04:50:40;;;;;;;96.80;40.65;;;;;;;;;;4902157;29;20056;-83
2023/01/15 04:53:25;;;;;;;132.65;41.88;;;;;;;;;;4902351;29;20040;-83
2023/01/15 04:56:11;;;;;;;185.40;40.58;;;;;;;;;;4901663;29;20056;-85
2023/01/15 04:59:00;;;;;;;213.95;39.35;;;;;;;;;;4880445;29;20045;-85
2023/01/15 05:01:46;;;;;;;147.32;42.33;;;;;;;;;;4906951;29;20056;-83
2023/01/15 05:04:33;;;;;;;268.85;43.45;;;;;;;;;;4902327;29;20045;-83
2023/01/15 05:07:18;;;;;;;101.00;41.83;;;;;;;;;;4901109;29;20398;-84
2023/01/15 05:10:04;;;;;;;81.78;33.72;;;;;;;;;;4893168;29;20044;-85
2023/01/15 05:12:49;;;;;;;153.52;46.63;;;;;;;;;;4900896;29;20044;-83
2023/01/15 05:15:37;;;;;;;77.63;28.85;;;;;;;;;;4906211;29;20045;-83
2023/01/15 05:18:22;;;;;;;134.00;48.08;;;;;;;;;;4900859;29;20052;-83
2023/01/15 05:21:25;;;;;;;170.77;40.75;;;;;;;;;;4900726;29;20040;-83
2023/01/15 05:24:13;;;;;;;100.65;41.55;;;;;;;;;;4900816;29;20048;-83
2023/01/15 05:26:58;;;;;;;145.68;54.67;;;;;;;;;;4900529;29;20498;-85
2023/01/15 05:29:44;;;;;;;98.18;45.72;;;;;;;;;;4900561;29;20048;-83
2023/01/15 05:32:29;;;;;;;84.60;39.45;;;;;;;;;;4900437;29;20057;-84
2023/01/15 05:35:14;;;;;;;126.32;51.72;;;;;;;;;;4892718;29;20513;-84
2023/01/15 05:37:59;;;;;;;216.75;88.28;;;;;;;;;;4900667;29;20040;-83
2023/01/15 05:40:44;;;;;;;132.18;51.45;;;;;;;;;;4892510;29;20514;-85
2023/01/15 05:43:30;;;;;;;115.13;48.05;;;;;;;;;;4899425;29;20045;-85
2023/01/15 05:46:15;;;;;;;159.32;54.67;;;;;;;;;;4900353;29;20048;-85
2023/01/15 05:49:03;;;;;;;132.45;45.28;;;;;;;;;;4899197;29;20052;-84
2023/01/15 05:51:50;;;;;;;136.18;45.58;;;;;;;;;;4892459;29;20056;-83
2023/01/15 05:54:35;;;;;;;117.70;44.65;;;;;;;;;;4901001;29;20052;-84
2023/01/15 05:57:21;;;;;;;120.28;43.38;;;;;;;;;;4900556;29;20048;-83
2023/01/15 06:00:07;;;;;;;126.03;43.28;;;;;;;;;;4900832;29;20468;-83
2023/01/15 06:02:58;;;;;;;125.60;47.00;;;;;;;;;;4900005;29;20041;-83
2023/01/15 06:05:50;;;;;;;117.78;37.67;;;;;;;;;;4905300;29;20044;-85
2023/01/15 06:08:34;;;;;;;80.40;33.72;;;;;;;;;;4892040;29;20060;-85
2023/01/15 06:11:21;;;;;;;102.97;35.88;;;;;;;;;;4899824;29;20048;-83
2023/01/15 06:14:07;;;;;;;95.35;36.85;;;;;;;;;;4899034;29;20045;-83
2023/01/15 06:16:51;;;;;;;85.10;33.35;;;;;;;;;;4899694;29;20041;-85
2023/01/15 06:19:37;;;;;;;86.82;32.40;;;;;;;;;;4892713;29;20052;-85
2023/01/15 06:22:22;;;;;;;81.55;34.10;;;;;;;;;;4891536;29;20052;-85
2023/01/15 06:25:08;;;;;;;83.85;33.88;;;;;;;;;;4891815;29;20040;-84
2023/01/15 06:27:53;;;;;;;94.93;34.53;;;;;;;;;;4878466;29;20048;-83
2023/01/15 06:30:39;;;;;;;99.47;39.20;;;;;;;;;;4899365;29;20048;-84
2023/01/15 06:33:24;;;;;;;113.50;45.05;;;;;;;;;;4898975;29;20044;-83
2023/01/15 06:36:17;;;;;;;80.93;35.63;;;;;;;;;;4891448;29;20040;-84
2023/01/15 06:39:02;;;;;;;74.00;30.67;;;;;;;;;;4891082;29;20048;-84
2023/01/15 06:47:56;;;;;;;79.32;34.90;;;;;;;;;;4904781;29;20052;-85
2023/01/15 06:50:41;;;;;;;224.60;82.18;;;;;;;;;;4899204;29;20041;-85
2023/01/15 06:53:27;;;;;;;101.60;41.05;;;;;;;;;;4891143;29;20045;-86
2023/01/15 06:56:14;;;;;;;82.88;33.50;;;;;;;;;;4899010;29;20422;-86
2023/01/15 06:58:59;;;;;;;115.60;47.85;;;;;;;;;;4904310;29;20057;-85
2023/01/15 07:01:44;;;;;;;90.05;36.72;;;;;;;;;;4898064;29;20041;-86
2023/01/15 07:04:30;;;;;;;82.10;30.75;;;;;;;;;;4891302;29;20044;-86
2023/01/15 07:07:17;;;;;;;69.55;27.75;;;;;;;;;;4890973;29;20045;-85
2023/01/15 07:10:03;;;;;;;89.78;31.70;;;;;;;;;;4899215;29;20044;-86
2023/01/15 07:12:48;;;;;;;54.88;28.20;;;;;;;;;;4899152;29;20041;-84
2023/01/15 07:15:34;;;;;;;64.38;28.48;;;;;;;;;;4898914;29;20052;-85
2023/01/15 07:18:19;;;;;;;56.88;27.05;;;;;;;;;;4901082;29;20041;-85
2023/01/15 07:21:05;;;;;;;65.38;30.73;;;;;;;;;;4898378;29;20060;-84
2023/01/15 07:23:50;;;;;;;72.75;32.63;;;;;;;;;;4898799;29;20048;-85
2023/01/15 07:26:37;;;;;;;58.40;29.40;;;;;;;;;;4899233;29;20044;-84
2023/01/15 07:29:22;;;;;;;58.90;29.00;;;;;;;;;;4898827;29;20044;-86
2023/01/15 07:32:07;;;;;;;73.40;31.02;;;;;;;;;;4897718;29;20052;-83
2023/01/15 07:34:52;;;;;;;68.70;32.22;;;;;;;;;;4898659;29;20048;-83
2023/01/15 07:37:38;;;;;;;96.28;40.80;;;;;;;;;;4898377;29;20495;-83
2023/01/15 07:40:24;;;;;;;101.28;48.00;;;;;;;;;;4903854;29;20048;-83
2023/01/15 07:52:25;;;;;;;80.13;37.97;;;;;;;;;;4901834;29;20049;-85
2023/01/15 07:55:14;;;;;;;74.50;35.25;;;;;;;;;;4888239;29;20048;-84
2023/01/15 07:58:01;;;;;;;95.75;41.08;;;;;;;;;;4907633;29;20044;-87
2023/01/15 08:00:46;;;;;;;79.85;38.40;;;;;;;;;;4888345;29;20048;-85
2023/01/15 08:03:31;;;;;;;144.70;57.70;;;;;;;;;;4902870;29;20443;-85
2023/01/15 08:06:17;;;;;;;73.13;35.17;;;;;;;;;;4902452;29;20045;-84
2023/01/15 08:09:03;;;;;;;136.80;56.88;;;;;;;;;;4902045;29;20479;-83
2023/01/15 08:17:57;;;;;;;104.75;46.25;;;;;;;;;;4901317;29;20044;-81
2023/01/15 08:20:43;;;;;;;72.15;35.50;;;;;;;;;;4902059;29;20398;-83
2023/01/15 08:23:28;;;;;;;88.93;34.60;;;;;;;;;;4901673;29;20040;-83
2023/01/15 08:26:13;;;;;;;95.43;39.25;;;;;;;;;;4907617;29;20490;-83
2023/01/15 08:29:00;;;;;;;96.65;40.35;;;;;;;;;;4901583;29;20048;-83
2023/01/15 08:31:45;;;;;;;87.78;37.63;;;;;;;;;;4893913;29;20044;-84
2023/01/15 08:34:31;;;;;;;90.65;41.72;;;;;;;;;;4901051;29;20053;-85
2023/01/15 08:37:17;;;;;;;138.07;51.45;;;;;;;;;;4901212;29;20489;-83
2023/01/15 08:40:03;;;;;;;86.68;35.53;;;;;;;;;;4901228;29;20053;-82
2023/01/15 08:42:49;;;;;;;73.60;30.48;;;;;;;;;;4901169;29;20041;-82
2023/01/15 08:45:34;;;;;;;84.22;37.75;;;;;;;;;;4907210;29;20057;-82
2023/01/15 08:48:19;;;;;;;105.38;42.13;;;;;;;;;;4900951;29;20494;-83
2023/01/15 08:51:06;;;;;;;71.50;33.67;;;;;;;;;;4901587;29;20053;-83
2023/01/15 08:53:51;;;;;;;73.78;34.25;;;;;;;;;;4901005;29;20049;-84
2023/01/15 08:56:36;;;;;;;58.10;30.33;;;;;;;;;;4900719;29;20052;-83
2023/01/15 08:59:22;;;;;;;66.05;32.72;;;;;;;;;;4899469;29;20052;-84
2023/01/15 09:02:16;;;;;;;64.30;29.98;;;;;;;;;;4892856;29;20044;-83
2023/01/15 09:05:01;;;;;;;78.10;34.78;;;;;;;;;;4905873;29;20048;-83
2023/01/15 09:07:46;;;;;;;74.65;34.65;;;;;;;;;;4907200;29;20475;-83
2023/01/15 09:10:32;;;;;;;74.82;34.17;;;;;;;;;;4906889;29;20406;-84
2023/01/15 09:13:18;;;;;;;140.55;45.95;;;;;;;;;;4906933;29;20048;-83
2023/01/15 09:16:05;;;;;;;80.90;37.40;;;;;;;;;;4906824;29;20044;-83
2023/01/15 09:18:51;;;;;;;97.68;43.42;;;;;;;;;;4900296;29;20067;-82
2023/01/15 09:21:37;;;;;;;98.47;43.70;;;;;;;;;;4906571;29;20407;-82
2023/01/15 09:24:22;;;;;;;99.65;43.80;;;;;;;;;;4900386;29;20475;-84
2023/01/15 09:27:11;;;;;;;93.95;41.22;;;;;;;;;;4900624;29;20045;-83
2023/01/15 09:29:56;;;;;;;76.35;35.70;;;;;;;;;;4900115;29;20487;-83
2023/01/15 09:32:41;;;;;;;123.28;52.60;;;;;;;;;;4906665;29;20053;-83
2023/01/15 09:35:26;;;;;;;110.07;48.22;;;;;;;;;;4905660;29;20044;-82
2023/01/15 09:38:13;;;;;;;92.22;42.58;;;;;;;;;;4900062;29;20044;-85
2023/01/15 09:41:07;;;;;;;84.82;39.72;;;;;;;;;;4906461;29;20057;-82
2023/01/15 09:44:13;;;;;;;123.70;55.50;;;;;;;;;;4900286;29;20040;-84
2023/01/15 09:47:20;;;;;;;105.90;47.05;;;;;;;;;;4906318;29;20048;-83
2023/01/15 09:50:24;;;;;;;95.68;42.50;;;;;;;;;;4900704;29;20053;-83
2023/01/15 09:53:38;;;;;;;83.10;38.90;;;;;;;;;;4900384;29;20053;-85
2023/01/15 09:56:27;;;;;;;78.55;36.33;;;;;;;;;;4895975;29;20040;-84
2023/01/15 09:59:34;;;;;;;82.30;35.22;;;;;;;;;;4898596;29;20056;-85
2023/01/15 10:02:34;;;;;;;91.82;43.28;;;;;;;;;;4906021;29;20495;-83
2023/01/15 10:05:30;;;;;;;85.63;40.60;;;;;;;;;;4899447;29;20045;-84
2023/01/15 10:08:39;;;;;;;76.57;37.08;;;;;;;;;;4904913;29;20395;-84
2023/01/15 10:15:03;;;;;;;54.17;25.42;;;;;;;;;;4904085;29;20045;-88
2023/01/15 10:17:52;;;;;;;61.90;29.17;;;;;;;;;;4898312;29;20044;-86
2023/01/15 10:20:46;;;;;;;51.33;24.88;;;;;;;;;;4899659;29;20886;-86
2023/01/15 10:23:39;;;;;;;68.57;32.63;;;;;;;;;;4898181;29;20037;-87
2023/01/15 10:26:43;;;;;;;71.03;35.75;;;;;;;;;;4904714;29;20395;-87
2023/01/15 10:29:31;;;;;;;68.97;33.92;;;;;;;;;;4904489;29;20045;-87
2023/01/15 10:32:57;;;;;;;70.63;36.83;;;;;;;;;;4898079;29;20040;-88
2023/01/15 10:35:45;;;;;;;;;;;;;;;;;;4906093;29;20398;-88
2023/01/15 10:38:43;;;;;;;62.60;32.80;;;;;;;;;;4878861;29;19916;-84
2023/01/15 10:41:46;;;;;;;66.75;33.03;;;;;;;;;;4900213;29;20048;-85
2023/01/15 10:44:41;;;;;;;64.22;33.60;;;;;;;;;;4899652;29;20390;-85
2023/01/15 10:47:32;;;;;;;68.93;34.78;;;;;;;;;;4905352;29;20041;-85
2023/01/15 10:50:21;;;;;;;53.90;27.98;;;;;;;;;;4898329;29;20044;-87
2023/01/15 10:53:26;;;;;;;63.50;32.38;;;;;;;;;;4905338;29;20483;-84
2023/01/15 10:56:51;;;;;;;62.40;32.80;;;;;;;;;;4906874;29;20056;-83
2023/01/15 10:59:57;;;;;;;60.00;32.08;;;;;;;;;;4896703;29;20060;-84
2023/01/15 11:03:13;;;;;;;51.88;29.50;;;;;;;;;;4899253;29;20494;-83
2023/01/15 11:05:59;;;;;;;44.90;25.17;;;;;;;;;;4891785;29;20045;-86
2023/01/15 11:08:50;;;;;;;56.95;30.17;;;;;;;;;;4903815;29;20048;-87
2023/01/15 11:20:54;;;;;;;40.30;23.13;;;;;;;;;;4899727;29;20036;-85
2023/01/15 11:23:40;;;;;;;42.53;23.45;;;;;;;;;;4901560;29;20040;-87
2023/01/15 11:26:29;;;;;;;40.95;22.33;;;;;;;;;;4906237;29;20491;-87
2023/01/15 11:29:29;;;;;;;39.28;22.50;;;;;;;;;;4884663;29;20060;-84
2023/01/15 11:32:37;;;;;;;45.42;25.33;;;;;;;;;;4891120;29;20491;-87
2023/01/15 11:35:23;;;;;;;45.25;25.95;;;;;;;;;;4902628;29;20053;-88
2023/01/15 11:38:13;;;;;;;52.33;28.25;;;;;;;;;;4903004;29;20037;-86
2023/01/15 11:41:01;;;;;;;45.22;23.90;;;;;;;;;;4903242;29;20048;-87
2023/01/15 11:53:27;;;;;;;33.20;20.40;;;;;;;;;;4907160;29;20045;-87
2023/01/15 11:56:19;;;;;;;28.45;17.67;;;;;;;;;;4898980;29;20056;-86
2023/01/15 11:59:13;;;;;;;12.13;8.60;;;;;;;;;;4897202;29;20040;-86
2023/01/15 12:02:03;;;;;;;14.85;8.38;;;;;;;;;;4884270;29;20052;-86
2023/01/15 12:04:55;;;;;;;26.90;16.10;;;;;;;;;;4896752;29;20044;-86
2023/01/15 12:07:41;;;;;;;17.08;10.30;;;;;;;;;;4898285;29;20040;-86
2023/01/15 12:11:05;;;;;;;83.35;31.80;;;;;;;;;;4897999;29;20052;-85
2023/01/15 12:14:17;;;;;;;21.83;11.75;;;;;;;;;;4900735;29;20049;-86
2023/01/15 12:17:18;;;;;;;16.05;10.23;;;;;;;;;;4903854;29;20056;-84
2023/01/15 12:20:06;;;;;;;12.77;8.18;;;;;;;;;;4897564;29;20044;-84
2023/01/15 12:22:55;;;;;;;8.13;5.40;;;;;;;;;;4877710;29;20509;-86
2023/01/15 12:25:47;;;;;;;10.68;6.32;;;;;;;;;;4884542;29;20486;-88
2023/01/15 12:28:37;;;;;;;9.15;6.30;;;;;;;;;;4884188;29;20502;-84
2023/01/15 12:31:36;;;;;;;20.67;13.18;;;;;;;;;;4897520;29;20056;-86
2023/01/15 12:34:27;;;;;;;62.03;37.00;;;;;;;;;;4899309;29;20036;-87
2023/01/15 12:37:35;;;;;;;13.95;10.98;;;;;;;;;;4905597;29;20048;-87
2023/01/15 12:40:26;;;;;;;159.80;93.95;;;;;;;;;;4894997;29;20052;-86
2023/01/15 12:46:27;;;;;;;117.57;75.93;;;;;;;;;;4907662;29;20048;-88
2023/01/15 12:49:33;;;;;;;24.88;19.40;;;;;;;;;;4901980;29;20375;-88
2023/01/15 12:52:25;;;;;;;21.15;15.52;;;;;;;;;;4907932;29;20049;-87
2023/01/15 12:55:25;;;;;;;13.48;9.68;;;;;;;;;;4902198;29;20040;-87
2023/01/15 12:58:35;;;;;;;18.80;12.48;;;;;;;;;;4903323;29;20048;-86
2023/01/15 13:01:39;;;;;;;17.85;11.48;;;;;;;;;;4900178;29;20491;-85
2023/01/15 13:04:43;;;;;;;11.05;7.90;;;;;;;;;;4900974;29;20402;-83
2023/01/15 13:07:35;;;;;;;25.80;16.38;;;;;;;;;;4900606;29;20044;-85
2023/01/15 13:10:25;;;;;;;19.33;11.52;;;;;;;;;;4901047;29;20044;-84
2023/01/15 13:13:20;;;;;;;47.53;24.08;;;;;;;;;;4892935;29;20045;-85
2023/01/15 13:16:12;;;;;;;51.05;28.30;;;;;;;;;;4901198;29;20048;-84
2023/01/15 13:19:06;;;;;;;28.58;19.52;;;;;;;;;;4900364;29;20040;-83
2023/01/15 13:21:56;;;;;;;71.70;43.20;;;;;;;;;;4900802;29;20415;-84
2023/01/15 13:25:07;;;;;;;44.50;23.13;;;;;;;;;;4900595;29;20044;-84
2023/01/15 13:28:15;;;;;;;48.03;25.75;;;;;;;;;;4900418;29;20052;-85
2023/01/15 13:31:28;;;;;;;44.00;20.98;;;;;;;;;;4900543;29;20048;-84
2023/01/15 13:34:39;;;;;;;22.92;11.77;;;;;;;;;;4905753;29;20044;-85
2023/01/15 13:37:28;;;;;;;50.45;22.73;;;;;;;;;;4899335;29;20044;-85
2023/01/15 13:40:33;;;;;;;20.63;11.32;;;;;;;;;;4906641;29;20065;-85
2023/01/15 13:43:39;;;;;;;91.90;42.20;;;;;;;;;;4905375;29;20514;-83
2023/01/15 13:46:24;;;;;;;25.40;15.80;;;;;;;;;;4900391;29;20048;-85
2023/01/15 13:49:18;;;;;;;33.60;22.27;;;;;;;;;;4898311;29;20040;-84
2023/01/15 13:52:06;;;;;;;29.83;16.85;;;;;;;;;;4905162;29;20040;-84
2023/01/15 13:55:10;;;;;;;16.27;11.93;;;;;;;;;;4898931;29;20048;-84
2023/01/15 13:57:56;;;;;;;21.02;15.45;;;;;;;;;;4899853;29;20048;-85
2023/01/15 14:00:41;;;;;;;18.95;10.82;;;;;;;;;;4899634;29;20056;-86
2023/01/15 14:03:31;;;;;;;12.80;7.72;;;;;;;;;;4899974;29;20506;-86
2023/01/15 14:06:19;;;;;;;27.00;15.95;;;;;;;;;;4899742;29;20048;-86
2023/01/15 14:09:08;;;;;;;35.50;20.35;;;;;;;;;;4899855;29;20053;-85
2023/01/15 14:12:06;;;;;;;22.25;13.88;;;;;;;;;;4898779;29;20056;-86
2023/01/15 14:14:52;;;;;;;26.85;17.75;;;;;;;;;;4899336;29;20060;-86
2023/01/15 14:18:02;;;;;;;29.63;17.35;;;;;;;;;;4899483;29;20052;-84
2023/01/15 14:21:19;;;;;;;15.18;9.20;;;;;;;;;;4900092;29;20048;-84
2023/01/15 14:24:28;;;;;;;36.88;22.80;;;;;;;;;;4905446;29;20383;-86
2023/01/15 14:27:33;;;;;;;24.13;14.27;;;;;;;;;;4899344;29;20052;-86
2023/01/15 14:30:31;;;;;;;47.72;27.70;;;;;;;;;;4899315;29;20048;-87
2023/01/15 14:33:47;;;;;;;49.33;24.90;;;;;;;;;;4899541;29;20052;-86
2023/01/15 14:37:03;;;;;;;38.10;20.60;;;;;;;;;;4899364;29;20052;-87
2023/01/15 14:39:53;;;;;;;41.13;18.88;;;;;;;;;;4899654;29;20045;-85
2023/01/15 14:46:24;;;;;;;25.35;13.40;;;;;;;;;;4882760;29;20056;-86
2023/01/15 14:49:29;;;;;;;34.45;18.10;;;;;;;;;;4898814;29;20048;-87
2023/01/15 14:52:22;;;;;;;28.35;14.63;;;;;;;;;;4898982;29;20395;-87
2023/01/15 14:55:10;;;;;;;38.95;19.38;;;;;;;;;;4904076;29;20044;-86
2023/01/15 14:58:02;;;;;;;28.77;14.15;;;;;;;;;;4905423;29;20395;-85
2023/01/15 15:00:51;;;;;;;44.22;22.55;;;;;;;;;;4900118;29;20048;-87
2023/01/15 15:04:10;;;;;;;53.58;29.85;;;;;;;;;;4898790;29;20052;-88
2023/01/15 15:07:00;;;;;;;52.15;26.15;;;;;;;;;;4898738;29;20044;-86
2023/01/15 15:09:59;;;;;;;44.08;24.35;;;;;;;;;;4898891;29;20052;-90
2023/01/15 15:13:04;;;;;;;41.22;22.65;;;;;;;;;;4899986;29;20045;-88
2023/01/15 15:16:00;;;;;;;33.88;18.23;;;;;;;;;;4897922;29;20052;-86
2023/01/15 15:18:59;;;;;;;33.72;18.45;;;;;;;;;;4898868;29;20052;-85
2023/01/15 15:21:46;;;;;;;38.63;20.77;;;;;;;;;;4898695;29;20045;-89
2023/01/15 15:24:37;;;;;;;43.60;21.25;;;;;;;;;;4904187;29;20495;-88
2023/01/15 15:27:23;;;;;;;33.15;18.00;;;;;;;;;;4906320;29;20048;-84
2023/01/15 15:30:15;;;;;;;40.20;16.50;;;;;;;;;;4898879;29;20045;-86
2023/01/15 15:33:16;;;;;;;42.50;19.83;;;;;;;;;;4890469;29;20052;-84
2023/01/15 15:36:01;;;;;;;40.40;19.77;;;;;;;;;;4898994;29;20044;-78
2023/01/15 15:38:59;;;;;;;33.72;16.85;;;;;;;;;;4904702;29;20407;-86
2023/01/15 15:48:51;;;;;;;45.17;22.10;;;;;;;;;;4898092;29;20060;-83
2023/01/15 15:51:44;;;;;;;67.10;29.70;;;;;;;;;;4898635;29;20052;-81
2023/01/15 15:54:30;;;;;;;53.03;25.40;;;;;;;;;;4897289;29;20048;-84
2023/01/15 15:57:40;;;;;;;28.42;15.73;;;;;;;;;;4898690;29;20052;-84
2023/01/15 16:00:40;;;;;;;48.00;27.75;;;;;;;;;;4898230;29;20061;-86
2023/01/15 16:03:28;;;;;;;34.55;17.77;;;;;;;;;;4898953;29;20052;-82
2023/01/15 16:06:20;;;;;;;39.28;21.98;;;;;;;;;;4898331;29;20056;-85
2023/01/15 16:09:08;;;;;;;30.38;16.40;;;;;;;;;;4898460;29;20044;-80
2023/01/15 16:12:05;;;;;;;27.02;16.20;;;;;;;;;;4904883;29;20048;-86
2023/01/15 16:14:51;;;;;;;34.25;18.38;;;;;;;;;;4906952;29;20045;-83
2023/01/15 16:17:38;;;;;;;40.15;21.75;;;;;;;;;;4906996;29;20044;-86
2023/01/15 16:20:25;;;;;;;38.15;20.80;;;;;;;;;;4901638;29;20462;-85
2023/01/15 16:23:22;;;;;;;38.15;19.65;;;;;;;;;;4907801;29;20048;-86
2023/01/15 16:26:18;;;;;;;46.50;24.13;;;;;;;;;;4901634;29;20044;-86
2023/01/15 16:29:06;;;;;;;36.60;20.50;;;;;;;;;;4901579;29;20052;-84
2023/01/15 16:31:54;;;;;;;44.08;23.48;;;;;;;;;;4907758;29;20049;-83
2023/01/15 16:34:40;;;;;;;36.55;21.35;;;;;;;;;;4901340;29;20060;-85
2023/01/15 16:37:29;;;;;;;38.60;20.02;;;;;;;;;;4901450;29;20048;-86
2023/01/15 16:40:22;;;;;;;147.65;62.67;;;;;;;;;;4908231;29;20052;-86
2023/01/15 16:43:07;;;;;;;166.07;59.42;;;;;;;;;;4893638;29;20048;-86
2023/01/15 16:45:53;;;;;;;175.50;66.80;;;;;;;;;;4900376;29;20613;-86
2023/01/15 16:48:44;;;;;;;69.72;31.45;;;;;;;;;;4901188;29;20495;-85
2023/01/15 16:51:34;;;;;;;88.53;41.22;;;;;;;;;;4901207;29;20045;-85
2023/01/15 16:54:29;;;;;;;48.50;22.13;;;;;;;;;;4901031;29;20048;-87
2023/01/15 16:57:31;;;;;;;52.17;27.75;;;;;;;;;;4916484;29;20033;-86
2023/01/15 17:00:29;;;;;;;48.15;25.52;;;;;;;;;;4903222;29;20054;-83
2023/01/15 17:03:18;;;;;;;70.60;33.50;;;;;;;;;;4902462;29;20049;-83
2023/01/15 17:06:11;;;;;;;44.85;24.58;;;;;;;;;;4907664;29;20430;-83
2023/01/15 17:08:59;;;;;;;55.72;32.70;;;;;;;;;;4907833;29;20044;-82
2023/01/15 17:11:49;;;;;;;65.93;36.22;;;;;;;;;;4895169;29;20052;-86
2023/01/15 17:14:34;;;;;;;109.82;53.20;;;;;;;;;;4908899;29;20486;-81
2023/01/15 17:17:19;;;;;;;91.72;45.90;;;;;;;;;;4904269;29;20049;-84
2023/01/15 17:20:05;;;;;;;94.32;47.03;;;;;;;;;;4906866;29;20052;-80
2023/01/15 17:22:51;;;;;;;112.40;53.67;;;;;;;;;;4899092;29;20480;-84
2023/01/15 17:25:36;;;;;;;163.80;75.38;;;;;;;;;;4906515;29;20048;-84
2023/01/15 17:28:23;;;;;;;120.40;57.50;;;;;;;;;;4908922;29;20044;-84
2023/01/15 17:31:19;;;;;;;95.63;50.33;;;;;;;;;;4911288;29;20483;-84
2023/01/15 17:34:05;;;;;;;102.22;53.35;;;;;;;;;;4902195;29;20044;-80
2023/01/15 17:36:50;;;;;;;106.95;54.67;;;;;;;;;;4902530;29;20052;-84
2023/01/15 17:39:36;;;;;;;90.93;42.65;;;;;;;;;;4906867;29;20048;-80
2023/01/15 17:42:21;;;;;;;96.95;44.95;;;;;;;;;;4901812;29;20048;-86
2023/01/15 17:45:27;;;;;;;111.22;46.03;;;;;;;;;;4904602;29;20036;-84
2023/01/15 17:48:13;;;;;;;83.65;36.75;;;;;;;;;;4905356;29;20491;-81
2023/01/15 17:51:03;;;;;;;63.90;28.77;;;;;;;;;;4907115;29;20044;-81
2023/01/15 17:53:48;;;;;;;74.65;33.65;;;;;;;;;;4909107;29;20157;-82
2023/01/15 18:05:48;;;;;;;179.17;83.47;;;;;;;;;;4900393;29;20044;-82
2023/01/15 18:08:35;;;;;;;241.05;120.40;;;;;;;;;;4914072;29;20455;-85
2023/01/15 18:11:21;;;;;;;234.23;121.47;;;;;;;;;;4916830;29;20040;-85
2023/01/15 18:14:07;;;;;;;220.57;116.18;;;;;;;;;;4905492;29;20044;-81
2023/01/15 18:16:52;;;;;;;212.82;106.22;;;;;;;;;;4906138;29;20052;-81
2023/01/15 18:19:37;;;;;;;209.77;106.47;;;;;;;;;;4914465;29;20044;-80
2023/01/15 18:22:22;;;;;;;218.10;108.05;;;;;;;;;;4915981;29;20049;-84
2023/01/15 18:25:11;;;;;;;203.65;100.00;;;;;;;;;;4903588;29;20040;-83
2023/01/15 18:27:57;;;;;;;208.40;101.15;;;;;;;;;;4900092;29;20474;-82
2023/01/15 18:30:42;;;;;;;263.33;130.48;;;;;;;;;;4901991;29;20040;-80
2023/01/15 18:33:32;;;;;;;234.73;115.80;;;;;;;;;;4906754;29;20045;-81
2023/01/15 18:36:17;;;;;;;173.15;84.90;;;;;;;;;;4896318;29;20049;-83
2023/01/15 18:39:06;;;;;;;155.63;69.63;;;;;;;;;;4885572;29;20074;-84
2023/01/15 18:47:41;;;;;;;200.43;96.22;;;;;;;;;;4907022;29;20037;-84
2023/01/15 18:50:27;;;;;;;201.45;99.80;;;;;;;;;;4898589;29;20049;-82
2023/01/15 18:53:19;;;;;;;199.05;98.95;;;;;;;;;;4899384;29;20048;-83
2023/01/15 18:56:06;;;;;;;206.82;103.68;;;;;;;;;;4905833;29;20049;-84
2023/01/15 18:58:51;;;;;;;193.93;99.70;;;;;;;;;;4899032;29;20040;-81
2023/01/15 19:01:39;;;;;;;176.73;95.25;;;;;;;;;;4880213;29;20045;-81
2023/01/15 19:04:26;;;;;;;176.25;89.55;;;;;;;;;;4888409;29;20053;-79
2023/01/15 19:07:22;;;;;;;209.25;106.03;;;;;;;;;;4873387;29;20114;-82